^^
Meteo Knjazevac Station Historical Data
Daily Summary for June 23, 2021 Units:  Both    English   Metric
Daily Weekly Monthly Yearly Custom
  High: Low: Average:
Temperature: 19.6 °F /  -6.9 °C 16.3 °F /  -8.7 °C 17.8 °F /  -7.9 °C
Dew Point: 17.4 °F /  -8.1 °C 13.9 °F /  -10.1 °C 15.5 °F /  -9.2 °C
Humidity: 93% 89% 90%
Wind Speed: 2mph /  3.2km/h - 1mph /  1.6km/h
Wind Gust: 6mph /  9.7km/h - -
Wind- - WNW
Pressure: 30.40 in /  1029.3 hPa 30.38 in /  1028.7 hPa -
Precipitation: 0.00 in /  0 mm    
Historical Graphs
 
 
Tabular Data for June 23, 2021
Time Temperature Dew Point Pressure Wind Wind Speed Wind Gust Humidity Rainfall Rate (Hourly) solar Conditions
00:00 19.6 °F /  -6.9 °C 16.9 °F /  -8.4 °C 30.40in /  1029.3hPa WNW 1mph /  1.6km/h 2mph /  3.2km/h 89% 0.00in /  0mm 0 W/m2
00:30 18.7 °F /  -7.4 °C 16 °F /  -8.9 °C 30.39in /  1029hPa WNW 1mph /  1.6km/h 2mph /  3.2km/h 89% 0.00in /  0mm 0 W/m2
00:40 18.5 °F /  -7.5 °C 15.8 °F /  -9 °C 30.39in /  1029hPa WNW 1mph /  1.6km/h 2mph /  3.2km/h 89% 0.00in /  0mm 0 W/m2
00:50 18.3 °F /  -7.6 °C 15.9 °F /  -8.9 °C 30.39in /  1029hPa WNW 1mph /  1.6km/h 3mph /  4.8km/h 90% 0.00in /  0mm 0 W/m2
01:00 18.5 °F /  -7.5 °C 16.3 °F /  -8.7 °C 30.39in /  1029hPa NNW 1mph /  1.6km/h 2mph /  3.2km/h 91% 0.00in /  0mm 0 W/m2
01:10 18.5 °F /  -7.5 °C 16.3 °F /  -8.7 °C 30.39in /  1029hPa Calm   3mph /  4.8km/h 91% 0.00in /  0mm 0 W/m2
01:20 19 °F /  -7.2 °C 17.4 °F /  -8.1 °C 30.38in /  1028.7hPa SSE 1mph /  1.6km/h 5mph /  8km/h 93% 0.00in /  0mm 0 W/m2
01:30 18.7 °F /  -7.4 °C 16.2 °F /  -8.8 °C 30.39in /  1029hPa NNW 1mph /  1.6km/h 2mph /  3.2km/h 90% 0.00in /  0mm 0 W/m2
01:40 18.7 °F /  -7.4 °C 16.5 °F /  -8.6 °C 30.39in /  1029hPa Calm   2mph /  3.2km/h 91% 0.00in /  0mm 0 W/m2
01:50 18.1 °F /  -7.7 °C 15.7 °F /  -9.1 °C 30.39in /  1029hPa Calm   2mph /  3.2km/h 90% 0.00in /  0mm 0 W/m2
02:00 17.6 °F /  -8 °C 14.9 °F /  -9.5 °C 30.39in /  1029hPa West 2mph /  3.2km/h 3mph /  4.8km/h 89% 0.00in /  0mm 0 W/m2
02:10 17.2 °F /  -8.2 °C 14.6 °F /  -9.7 °C 30.39in /  1029hPa WNW 2mph /  3.2km/h 3mph /  4.8km/h 89% 0.00in /  0mm 0 W/m2
02:20 17.1 °F /  -8.3 °C 14.6 °F /  -9.7 °C 30.39in /  1029hPa NW 1mph /  1.6km/h 4mph /  6.4km/h 90% 0.00in /  0mm 0 W/m2
02:30 17.1 °F /  -8.3 °C 14.9 °F /  -9.5 °C 30.39in /  1029hPa NNW 1mph /  1.6km/h 3mph /  4.8km/h 91% 0.00in /  0mm 0 W/m2
02:40 17.2 °F /  -8.2 °C 15.1 °F /  -9.4 °C 30.39in /  1029hPa NW 1mph /  1.6km/h 5mph /  8km/h 91% 0.00in /  0mm 0 W/m2
02:50 17.1 °F /  -8.3 °C 14.9 °F /  -9.5 °C 30.38in /  1028.7hPa Calm   4mph /  6.4km/h 91% 0.00in /  0mm 0 W/m2
03:00 17.1 °F /  -8.3 °C 14.9 °F /  -9.5 °C 30.38in /  1028.7hPa WNW 2mph /  3.2km/h 4mph /  6.4km/h 91% 0.00in /  0mm 0 W/m2
03:10 16.7 °F /  -8.5 °C 14.3 °F /  -9.8 °C 30.38in /  1028.7hPa Calm   3mph /  4.8km/h 90% 0.00in /  0mm 0 W/m2
03:20 16.3 °F /  -8.7 °C 13.9 °F /  -10.1 °C 30.38in /  1028.7hPa NW 2mph /  3.2km/h 3mph /  4.8km/h 90% 0.00in /  0mm 0 W/m2
03:30 16.7 °F /  -8.5 °C 14.5 °F /  -9.7 °C 30.38in /  1028.7hPa NNW 1mph /  1.6km/h 6mph /  9.7km/h 91% 0.00in /  0mm 0 W/m2
Knjazevac, Serbia
Compliments of Weather Underground - 2 mb